πŸ“Š DonnΓ©es MΓ©tΓ©o - Bordeaux

Total mesures

14,379

TempΓ©rature moyenne

18.8Β°C

Temp. Min/Max

2.9Β° / 42.4Β°

HumiditΓ© moyenne

64.9%

Pression moyenne

1014.7 hPa
enregistrements
ID Date/Heure Temp (Β°C) HumiditΓ© (%) Pression (hPa) Tendance LuminositΓ© (lux) Situation
12379 03/08/2026 15:15 31.6 42.0 1,007.8 β†’ Stable 56,940 conditions-neutrales-ou-non-definies
12378 03/08/2026 14:45 31.2 45.0 1,008.3 β†’ Stable 59,628 conditions-neutrales-ou-non-definies
12377 03/08/2026 14:15 30.7 48.0 1,008.3 β†’ Stable 57,960 conditions-neutrales-ou-non-definies
12376 03/08/2026 13:45 30.4 50.0 1,008.4 β†’ Stable 63,888 conditions-neutrales-ou-non-definies
12375 03/08/2026 13:15 30.9 42.0 1,008.6 β†’ Stable 88,608 confortablement-chaud (approx.)
12374 03/08/2026 12:45 29.9 45.0 1,009.1 β†’ Stable 96,756 confortablement-chaud (approx.)
12373 03/08/2026 12:15 29.6 44.0 1,009.1 β†’ Stable 98,520 confortablement-chaud (approx.)
12372 03/08/2026 11:45 28.5 51.0 1,009.9 β†’ Stable 100,560 confortablement-chaud
12371 03/08/2026 11:15 27.7 59.0 1,009.9 β†’ Stable 89,532 confortablement-chaud
12370 03/08/2026 10:45 26.6 67.0 1,009.4 β†’ Stable 84,624 confortablement-chaud
12369 03/08/2026 10:15 27.8 53.0 1,009.4 β†’ Stable 85,836 confortablement-chaud
12368 03/08/2026 09:45 27.2 55.0 1,009.4 β†’ Stable 81,300 confortablement-chaud
12367 03/08/2026 09:15 26.3 58.0 1,009.4 β†’ Stable 69,348 confortablement-chaud (approx.)
12366 03/08/2026 08:45 24.9 66.0 1,009.8 β†’ Stable 61,848 confortablement-chaud (approx.)
12365 03/08/2026 08:15 24.0 71.0 1,009.8 β†’ Stable 36,384 pluvieux-gris (approx.)
12364 03/08/2026 07:45 23.0 74.0 1,009.6 β†’ Stable 27,588 pluvieux-gris (approx.)
12363 03/08/2026 07:15 22.5 78.0 1,009.6 β†’ Stable 21,024 pluvieux-gris (approx.)
12362 03/08/2026 06:45 21.9 83.0 1,009.0 β†’ Stable 15,372 pluvieux-gris (approx.)
12361 03/08/2026 06:15 21.5 85.0 1,009.0 β†’ Stable 9,540 pluvieux-gris (approx.)
12360 03/08/2026 05:45 21.1 86.0 1,009.0 β†’ Stable 5,460 pluvieux-gris (approx.)
12359 03/08/2026 05:15 20.9 88.0 1,008.8 β†’ Stable 1,572 pluvieux-gris (approx.)
12358 03/08/2026 04:45 20.8 88.0 1,008.6 β†’ Stable 0 pluvieux-gris (approx.)
12357 03/08/2026 04:15 21.0 88.0 1,008.6 β†’ Stable 0 pluvieux-gris (approx.)
12356 03/08/2026 03:45 21.0 88.0 1,008.8 β†’ Stable 0 pluvieux-gris (approx.)
12355 03/08/2026 03:15 21.1 87.0 1,008.8 β†’ Stable 0 pluvieux-gris (approx.)
12354 03/08/2026 02:45 21.2 87.0 1,008.6 β†’ Stable 0 pluvieux-gris (approx.)
12353 03/08/2026 02:15 21.4 85.0 1,008.6 β†’ Stable 0 pluvieux-gris (approx.)
12352 03/08/2026 01:45 21.5 84.0 1,008.9 β†’ Stable 0 pluvieux-gris (approx.)
12351 03/08/2026 01:15 21.7 81.0 1,008.6 β†’ Stable 0 pluvieux-gris (approx.)
12350 03/08/2026 00:45 22.1 76.0 1,008.5 β†’ Stable 0 pluvieux-gris (approx.)
12349 03/08/2026 00:15 22.6 70.0 1,008.5 β†’ Stable 0 pluvieux-gris (approx.)
12348 02/08/2026 23:45 23.0 64.0 1,008.5 β†’ Stable 0 frais-stable
12347 02/08/2026 23:15 23.6 60.0 1,008.5 β†’ Stable 0 conditions-neutrales-ou-non-definies
12346 02/08/2026 22:45 23.7 59.0 1,008.7 β†’ Stable 0 conditions-neutrales-ou-non-definies
12345 02/08/2026 22:15 24.2 56.0 1,008.7 β†’ Stable 0 confortablement-chaud (approx.)
12344 02/08/2026 21:45 24.4 56.0 1,008.5 β†’ Stable 0 confortablement-chaud (approx.)
12343 02/08/2026 21:15 25.2 51.0 1,008.5 β†’ Stable 0 confortablement-chaud (approx.)
12342 02/08/2026 20:45 25.6 51.0 1,008.0 β†’ Stable 0 confortablement-chaud (approx.)
12341 02/08/2026 20:15 26.6 48.0 1,008.0 β†’ Stable 0 confortablement-chaud (approx.)
12340 02/08/2026 19:45 27.4 46.0 1,007.4 β†’ Stable 0 confortablement-chaud (approx.)
12339 02/08/2026 19:15 28.7 41.0 1,007.4 β†’ Stable 3,060 confortablement-chaud (approx.)
12338 02/08/2026 18:45 29.7 39.0 1,007.0 β†’ Stable 10,092 conditions-neutrales-ou-non-definies
12337 02/08/2026 18:15 30.8 36.0 1,007.0 β†’ Stable 20,088 chaleur-seche
12336 02/08/2026 17:45 32.0 35.0 1,006.8 β†’ Stable 29,448 chaleur-seche
12335 02/08/2026 17:15 32.8 33.0 1,006.8 β†’ Stable 41,016 chaleur-seche
12334 02/08/2026 16:45 33.9 31.0 1,006.3 β†’ Stable 50,736 chaleur-seche
12333 02/08/2026 16:15 34.8 30.0 1,006.3 β†’ Stable 61,116 chaleur-seche
12332 02/08/2026 15:45 37.1 28.0 1,007.0 β†’ Stable 69,816 chaleur-seche
12331 02/08/2026 15:15 36.2 27.0 1,007.0 β†’ Stable 80,088 chaleur-seche
12330 02/08/2026 14:45 35.9 28.0 1,007.5 β†’ Stable 87,312 chaleur-seche
12329 02/08/2026 14:15 35.9 27.0 1,007.5 β†’ Stable 93,420 chaleur-seche
12328 02/08/2026 13:45 35.5 28.0 1,008.1 β†’ Stable 98,052 chaleur-seche
12327 02/08/2026 13:15 34.8 29.0 1,008.2 β†’ Stable 101,388 chaleur-seche
12326 02/08/2026 12:45 34.3 29.0 1,008.9 β†’ Stable 103,332 chaleur-seche
12325 02/08/2026 12:15 34.0 30.0 1,008.9 β†’ Stable 103,980 chaleur-seche
12324 02/08/2026 11:45 33.6 31.0 1,009.2 β†’ Stable 103,236 chaleur-seche
12323 02/08/2026 11:15 33.1 32.0 1,009.2 β†’ Stable 101,208 chaleur-seche
12322 02/08/2026 10:15 30.9 37.0 1,009.8 β†’ Stable 92,040 chaleur-seche
12321 02/08/2026 09:45 29.8 40.0 1,010.2 β†’ Stable 86,112 confortablement-chaud (approx.)
12320 02/08/2026 09:15 28.5 44.0 1,010.2 β†’ Stable 77,040 confortablement-chaud
12319 02/08/2026 08:45 27.1 48.0 1,010.3 β†’ Stable 69,072 confortablement-chaud (approx.)
12318 02/08/2026 08:15 25.5 52.0 1,010.3 β†’ Stable 57,876 confortablement-chaud (approx.)
12317 02/08/2026 07:45 24.4 56.0 1,010.2 β†’ Stable 48,888 confortablement-chaud (approx.)
12316 02/08/2026 07:15 22.8 64.0 1,010.2 β†’ Stable 36,300 frais-stable
12315 02/08/2026 06:45 21.6 70.0 1,010.1 β†’ Stable 27,408 pluvieux-gris (approx.)
12314 02/08/2026 06:15 20.0 77.0 1,010.1 β†’ Stable 15,276 pluvieux-gris (approx.)
12313 02/08/2026 05:45 19.2 80.0 1,010.2 β†’ Stable 8,328 pluvieux-gris (approx.)
12312 02/08/2026 05:15 18.9 78.0 1,010.2 β†’ Stable 2,496 pluvieux-gris (approx.)
12311 02/08/2026 04:45 19.0 72.0 1,010.3 β†’ Stable 0 pluvieux-gris (approx.)
12310 02/08/2026 04:15 19.7 65.0 1,010.3 β†’ Stable 0 frais-stable
12309 02/08/2026 03:45 20.1 64.0 1,010.3 β†’ Stable 0 frais-stable
12308 02/08/2026 03:15 20.7 64.0 1,010.3 β†’ Stable 0 frais-stable
12307 02/08/2026 02:45 20.8 63.0 1,010.5 β†’ Stable 0 frais-stable
12306 02/08/2026 02:15 21.1 61.0 1,010.5 β†’ Stable 0 frais-stable
12305 02/08/2026 01:45 21.0 61.0 1,011.1 β†’ Stable 0 frais-stable
12304 02/08/2026 01:15 21.5 61.0 1,010.9 β†’ Stable 0 frais-stable
12303 02/08/2026 00:45 21.6 61.0 1,011.5 β†’ Stable 0 frais-stable
12302 02/08/2026 00:15 22.6 56.0 1,011.5 β†’ Stable 0 frais-stable
12301 01/08/2026 23:45 22.9 55.0 1,011.9 β†’ Stable 0 frais-stable
12300 01/08/2026 23:15 23.7 50.0 1,011.9 β†’ Stable 0 conditions-neutrales-ou-non-definies
12299 01/08/2026 22:45 24.0 49.0 1,012.6 β†’ Stable 0 confortablement-chaud (approx.)
12298 01/08/2026 22:15 23.6 52.0 1,012.6 β†’ Stable 0 conditions-neutrales-ou-non-definies
12297 01/08/2026 21:45 24.1 52.0 1,012.6 β†’ Stable 0 confortablement-chaud (approx.)
12296 01/08/2026 21:15 24.6 51.0 1,012.6 β†’ Stable 0 confortablement-chaud (approx.)
12295 01/08/2026 20:45 25.1 50.0 1,012.1 β†’ Stable 0 confortablement-chaud (approx.)
12294 01/08/2026 20:15 25.8 49.0 1,012.1 β†’ Stable 0 confortablement-chaud (approx.)
12293 01/08/2026 19:45 26.3 49.0 1,012.1 β†’ Stable 0 confortablement-chaud (approx.)
12292 01/08/2026 19:15 27.6 45.0 1,012.1 β†’ Stable 3,336 confortablement-chaud (approx.)
12291 01/08/2026 18:45 28.5 43.0 1,012.2 β†’ Stable 10,560 confortablement-chaud (approx.)
12290 01/08/2026 18:15 29.0 40.0 1,012.2 β†’ Stable 20,652 confortablement-chaud (approx.)
12289 01/08/2026 17:45 30.2 38.0 1,012.1 β†’ Stable 30,000 chaleur-seche
12288 01/08/2026 17:15 31.6 34.0 1,012.1 β†’ Stable 41,292 chaleur-seche
12287 01/08/2026 16:45 31.6 35.0 1,012.5 β†’ Stable 50,928 chaleur-seche
12286 01/08/2026 16:15 31.6 36.0 1,012.5 β†’ Stable 61,944 chaleur-seche
12285 01/08/2026 15:45 31.5 36.0 1,013.2 β†’ Stable 70,740 chaleur-seche
12284 01/08/2026 15:15 31.2 38.0 1,013.2 β†’ Stable 78,792 chaleur-seche
12283 01/08/2026 14:45 31.0 38.0 1,013.6 β†’ Stable 86,112 chaleur-seche
12282 01/08/2026 14:15 30.8 38.0 1,013.6 β†’ Stable 92,964 chaleur-seche
12281 01/08/2026 13:45 30.6 39.0 1,014.2 β†’ Stable 98,328 chaleur-seche
12280 01/08/2026 13:15 30.5 39.0 1,014.2 β†’ Stable 101,208 chaleur-seche